CEFAS Endeavour — VQHF3 — position and weather

sailwx.info

Track history (hours):
 
Tides and Currents Weather Stations Pressure Air Temp Water Temp Dewpoint Dewpoint Depression Visibility Wind Speed Wind Dir Waves Ship Positions

Oceanographic research ship CEFAS Endeavour (UK)

Detailed information on ship capabilities available from University of Delaware's Ocean Information Center.

Last reported at 2014-Oct-23 02:31 UTC. Time now 2014-Oct-26 01:56 UTC.
Position N 51°07' W 006°38'.

Length 74 m; draft 5.5 m.

Type: Cargo ship. MMSI: 235005270.

Date/timePositionNaut miles runAvg speedWind from/ knotsBaromVisibWave heightAir tempDewpointWater temp
2014-Oct-23 02:31N 51°07' W 006°38'5 4.9
2014-Oct-23 01:29N 51°07' W 006°46'7 1.2
2014-Oct-22 19:26N 51°08' W 006°35'6 6.1
2014-Oct-22 18:28N 51°02' W 006°36'0 0.4
2014-Oct-22 17:33N 51°03' W 006°36'0 0.3
2014-Oct-22 16:17N 51°02' W 006°36'0 0.4
2014-Oct-22 15:29N 51°02' W 006°36'  
2014-Oct-14 23:13N 50°43' W 005°13'711.2
2014-Oct-14 22:33N 50°46' W 005°23'1 0.2
2014-Oct-14 14:31N 50°47' W 005°25'1010.3
2014-Oct-14 13:33N 50°42' W 005°11'10 5.0
2014-Oct-14 11:33N 50°33' W 005°06'4 4.1
2014-Oct-14 10:33N 50°29' W 005°05'8 8.0
2014-Oct-14 09:33N 50°33' W 005°16'1010.3
2014-Oct-14 08:33N 50°37' W 005°30'13 0.6
2014-Oct-13 12:06N 50°25' W 005°26'710.5
2014-Oct-13 11:23N 50°21' W 005°15'  
Track history (hours):
 
Tides and Currents Weather Stations Pressure Air Temp Water Temp Dewpoint Dewpoint Depression Visibility Wind Speed Wind Dir Waves Ship Positions

Oceanographic research ship CEFAS Endeavour (UK)

Detailed information on ship capabilities available from University of Delaware's Ocean Information Center.

Last reported at 2014-Oct-23 02:31 UTC. Time now 2014-Oct-26 01:56 UTC.
Position N 51°07' W 006°38'.

Length 74 m; draft 5.5 m.

Type: Cargo ship. MMSI: 235005270.

Date/timePositionNaut miles runAvg speedWind from/ knotsBaromVisibWave heightAir tempDewpointWater temp
2014-Oct-23 02:31N 51°07' W 006°38'5 4.9
2014-Oct-23 01:29N 51°07' W 006°46'7 1.2
2014-Oct-22 19:26N 51°08' W 006°35'6 6.1
2014-Oct-22 18:28N 51°02' W 006°36'0 0.4
2014-Oct-22 17:33N 51°03' W 006°36'0 0.3
2014-Oct-22 16:17N 51°02' W 006°36'0 0.4
2014-Oct-22 15:29N 51°02' W 006°36'  
2014-Oct-14 23:13N 50°43' W 005°13'711.2
2014-Oct-14 22:33N 50°46' W 005°23'1 0.2
2014-Oct-14 14:31N 50°47' W 005°25'1010.3
2014-Oct-14 13:33N 50°42' W 005°11'10 5.0
2014-Oct-14 11:33N 50°33' W 005°06'4 4.1
2014-Oct-14 10:33N 50°29' W 005°05'8 8.0
2014-Oct-14 09:33N 50°33' W 005°16'1010.3
2014-Oct-14 08:33N 50°37' W 005°30'13 0.6
2014-Oct-13 12:06N 50°25' W 005°26'710.5
2014-Oct-13 11:23N 50°21' W 005°15'  

Dump ship's entire track history